createdAt,value
2023-05-21T00:02:21.878Z,13.62
2023-05-21T00:04:51.698Z,13.64
2023-05-21T00:07:20.765Z,13.65
2023-05-21T00:09:49.139Z,13.67
2023-05-21T00:12:17.190Z,13.70
2023-05-21T00:14:45.691Z,13.73
2023-05-21T00:17:13.966Z,13.76
2023-05-21T00:19:42.026Z,13.80
2023-05-21T00:22:10.026Z,13.84
2023-05-21T00:24:38.288Z,13.87
2023-05-21T00:27:06.668Z,13.87
2023-05-21T00:29:34.847Z,13.90
2023-05-21T00:32:04.175Z,13.95
2023-05-21T00:34:32.621Z,14.00
2023-05-21T00:37:02.861Z,14.07
2023-05-21T00:39:31.042Z,14.13
2023-05-21T00:42:00.621Z,14.17
2023-05-21T00:44:34.633Z,14.20
2023-05-21T00:47:03.951Z,14.23
2023-05-21T00:49:32.523Z,14.26
2023-05-21T00:52:01.800Z,14.28
2023-05-21T00:54:30.707Z,14.28
2023-05-21T00:56:59.296Z,14.28
2023-05-21T00:59:27.891Z,14.28
2023-05-21T01:01:57.299Z,14.29
2023-05-21T01:04:26.367Z,14.29
2023-05-21T01:06:56.490Z,14.29
2023-05-21T01:09:26.932Z,14.27
2023-05-21T01:11:56.534Z,14.27
2023-05-21T01:14:25.098Z,14.27
2023-05-21T01:16:54.167Z,14.24
2023-05-21T01:19:24.824Z,14.20
2023-05-21T01:21:59.222Z,14.17
2023-05-21T01:24:27.436Z,14.15
2023-05-21T01:26:55.708Z,14.16
2023-05-21T01:29:23.887Z,14.15
2023-05-21T01:32:04.573Z,14.10
2023-05-21T01:34:56.174Z,14.04
2023-05-21T01:37:36.141Z,14.00
2023-05-21T01:40:32.360Z,13.95
2023-05-21T01:43:03.836Z,13.91
2023-05-21T01:45:33.634Z,13.87
2023-05-21T01:48:03.357Z,13.83
2023-05-21T01:50:32.745Z,13.79
2023-05-21T01:53:06.059Z,13.76
2023-05-21T01:55:34.952Z,13.73
2023-05-21T01:58:03.621Z,13.70
2023-05-21T02:00:32.922Z,13.67
2023-05-21T02:03:01.478Z,13.63
2023-05-21T02:05:30.694Z,13.59
2023-05-21T02:08:01.735Z,13.56
2023-05-21T02:10:30.030Z,13.58
2023-05-21T02:12:59.519Z,13.58
2023-05-21T02:15:27.611Z,13.54
2023-05-21T02:17:56.092Z,13.51
2023-05-21T02:20:24.553Z,13.48
2023-05-21T02:22:52.834Z,13.47
2023-05-21T02:25:21.205Z,13.44
2023-05-21T02:27:53.830Z,13.41
2023-05-21T02:30:22.386Z,13.38
2023-05-21T02:32:51.093Z,13.35
2023-05-21T02:35:19.551Z,13.33
2023-05-21T02:37:48.027Z,13.32
2023-05-21T02:40:16.816Z,13.30
2023-05-21T02:42:45.091Z,13.28
2023-05-21T02:45:15.224Z,13.30
2023-05-21T02:47:44.440Z,13.37
2023-05-21T02:50:15.243Z,13.39
2023-05-21T02:52:47.717Z,13.41
2023-05-21T02:55:15.888Z,13.43
2023-05-21T02:57:44.265Z,13.47
2023-05-21T03:00:13.771Z,13.50
2023-05-21T03:02:43.636Z,13.53
2023-05-21T03:05:12.469Z,13.57
2023-05-21T03:07:42.047Z,13.63
2023-05-21T03:10:11.289Z,13.69
2023-05-21T03:12:39.552Z,13.75
2023-05-21T03:15:08.653Z,13.80
2023-05-21T03:17:36.854Z,13.86
2023-05-21T03:20:05.841Z,13.95
2023-05-21T03:22:35.119Z,14.07
2023-05-21T03:25:03.505Z,14.22
2023-05-21T03:27:32.389Z,14.35
2023-05-21T03:30:01.192Z,14.48
2023-05-21T03:32:29.781Z,14.64
2023-05-21T03:34:58.139Z,14.77
2023-05-21T03:37:26.317Z,14.88
2023-05-21T03:39:54.595Z,15.00
2023-05-21T03:42:22.867Z,15.11
2023-05-21T03:44:53.826Z,15.24
2023-05-21T03:48:02.203Z,15.40
2023-05-21T03:50:31.626Z,15.53
2023-05-21T03:52:59.807Z,15.67
2023-05-21T03:55:27.979Z,15.80
2023-05-21T03:57:57.111Z,15.94
2023-05-21T04:00:25.867Z,16.09
2023-05-21T04:02:54.743Z,16.24
2023-05-21T04:05:23.146Z,16.38
2023-05-21T04:07:51.613Z,16.52
2023-05-21T04:10:19.893Z,16.66
2023-05-21T04:12:52.752Z,16.79
2023-05-21T04:15:21.690Z,16.93
2023-05-21T04:17:50.561Z,17.05
2023-05-21T04:20:19.446Z,17.14
2023-05-21T04:22:47.828Z,17.21
2023-05-21T04:25:16.315Z,17.30
2023-05-21T04:27:47.909Z,17.40
2023-05-21T04:30:16.554Z,17.50
2023-05-21T04:32:46.142Z,17.62
2023-05-21T04:35:15.592Z,17.73
2023-05-21T04:37:46.202Z,17.85
2023-05-21T04:40:18.868Z,17.97
2023-05-21T04:42:48.501Z,18.07
2023-05-21T04:45:18.304Z,18.17
2023-05-21T04:47:48.178Z,18.29
2023-05-21T04:50:16.584Z,18.46
2023-05-21T04:52:45.782Z,18.65
2023-05-21T04:55:14.362Z,18.82
2023-05-21T04:57:42.541Z,18.99
2023-05-21T05:00:12.677Z,19.16
2023-05-21T05:02:43.699Z,19.29
2023-05-21T05:05:12.080Z,19.37
2023-05-21T05:07:40.563Z,19.46
2023-05-21T05:10:09.272Z,19.44
2023-05-21T05:12:37.732Z,19.35
2023-05-21T05:15:07.032Z,19.31
2023-05-21T05:17:35.800Z,19.28
2023-05-21T05:20:05.306Z,19.37
2023-05-21T05:22:33.602Z,19.48
2023-05-21T05:25:01.876Z,19.60
2023-05-21T05:27:30.059Z,19.81
2023-05-21T05:29:58.660Z,20.26
2023-05-21T05:32:26.952Z,20.71
2023-05-21T05:34:56.328Z,20.97
2023-05-21T05:37:24.602Z,21.09
2023-05-21T05:39:53.170Z,21.19
2023-05-21T05:42:21.456Z,21.25
2023-05-21T05:44:49.830Z,21.26
2023-05-21T05:47:18.207Z,21.23
2023-05-21T05:49:46.795Z,21.26
2023-05-21T05:52:15.287Z,21.33
2023-05-21T05:54:43.553Z,21.37
2023-05-21T05:57:11.827Z,21.44
2023-05-21T05:59:40.306Z,21.39
2023-05-21T06:02:08.697Z,21.30
2023-05-21T06:04:36.960Z,21.33
2023-05-21T06:07:05.338Z,21.46
2023-05-21T06:09:33.617Z,21.59
2023-05-21T06:12:01.996Z,21.55
2023-05-21T06:14:30.392Z,21.57
2023-05-21T06:16:58.880Z,21.59
2023-05-21T06:19:27.827Z,21.64
2023-05-21T06:21:56.637Z,21.79
2023-05-21T06:24:24.916Z,21.89
2023-05-21T06:26:53.720Z,21.99
2023-05-21T06:29:22.183Z,22.12
2023-05-21T06:31:50.671Z,22.24
2023-05-21T06:34:18.852Z,22.40
2023-05-21T06:36:47.729Z,22.44
2023-05-21T06:39:15.999Z,22.50
2023-05-21T06:41:44.077Z,22.62
2023-05-21T06:44:25.776Z,22.59
2023-05-21T06:47:15.585Z,22.73
2023-05-21T06:49:45.154Z,22.82
2023-05-21T06:52:13.331Z,22.89
2023-05-21T06:54:42.630Z,23.02
2023-05-21T06:57:11.328Z,23.06
2023-05-21T06:59:39.593Z,23.10
2023-05-21T07:02:07.795Z,22.99
2023-05-21T07:04:36.684Z,23.02
2023-05-21T07:07:05.390Z,22.98
2023-05-21T07:09:34.245Z,22.91
2023-05-21T07:12:02.819Z,22.84
2023-05-21T07:14:31.094Z,22.94
2023-05-21T07:16:59.614Z,23.18
2023-05-21T07:19:28.060Z,23.33
2023-05-21T07:21:57.973Z,23.47
2023-05-21T07:24:27.989Z,23.69
2023-05-21T07:26:56.673Z,24.12
2023-05-21T07:29:25.058Z,24.65
2023-05-21T07:31:53.655Z,25.27
2023-05-21T07:34:22.124Z,25.56
2023-05-21T07:36:50.401Z,25.84
2023-05-21T07:39:18.881Z,25.86
2023-05-21T07:41:46.995Z,25.92
2023-05-21T07:44:16.872Z,25.59
2023-05-21T07:46:46.837Z,25.47
2023-05-21T07:49:17.184Z,25.35
2023-05-21T07:51:46.920Z,25.14
2023-05-21T07:54:16.250Z,24.68
2023-05-21T07:56:44.504Z,24.75
2023-05-21T07:59:18.409Z,24.53
2023-05-21T08:01:47.206Z,24.51
2023-05-21T08:04:15.468Z,24.43
2023-05-21T08:06:44.670Z,24.30
2023-05-21T08:09:13.258Z,24.22
2023-05-21T08:11:42.351Z,24.15
2023-05-21T08:14:11.650Z,24.02
2023-05-21T08:16:40.103Z,23.97
2023-05-21T08:19:08.637Z,23.86
2023-05-21T08:21:37.300Z,23.89
2023-05-21T08:24:06.303Z,23.83
2023-05-21T08:26:34.671Z,23.94
2023-05-21T08:29:03.661Z,24.12
2023-05-21T08:31:32.074Z,24.14
2023-05-21T08:34:00.217Z,24.48
2023-05-21T08:36:38.807Z,24.81
2023-05-21T08:39:13.235Z,25.11
2023-05-21T08:41:49.901Z,25.41
2023-05-21T08:44:23.963Z,25.65
2023-05-21T08:46:55.214Z,25.77
2023-05-21T08:49:27.593Z,25.56
2023-05-21T08:51:58.002Z,25.75
2023-05-21T08:54:28.177Z,25.78
2023-05-21T08:56:58.426Z,25.77
2023-05-21T08:59:27.628Z,25.76
2023-05-21T09:01:57.855Z,25.70
2023-05-21T09:04:32.844Z,25.68
2023-05-21T09:07:03.157Z,25.60
2023-05-21T09:09:55.902Z,25.56
2023-05-21T09:12:25.798Z,25.64
2023-05-21T09:14:54.675Z,25.86
2023-05-21T09:17:28.383Z,25.95
2023-05-21T09:20:12.348Z,26.08
2023-05-21T09:22:44.489Z,26.26
2023-05-21T09:25:15.604Z,26.41
2023-05-21T09:27:44.592Z,26.59
2023-05-21T09:30:15.649Z,27.03
2023-05-21T09:32:46.120Z,27.27
2023-05-21T09:35:15.477Z,27.42
2023-05-21T09:37:47.962Z,27.40
2023-05-21T09:40:23.909Z,27.77
2023-05-21T09:42:54.160Z,28.05
2023-05-21T09:45:23.663Z,27.98
2023-05-21T09:47:54.032Z,28.08
2023-05-21T09:50:28.621Z,27.86
2023-05-21T09:52:57.691Z,27.66
2023-05-21T09:55:26.882Z,27.91
2023-05-21T09:57:55.260Z,28.44
2023-05-21T10:00:27.600Z,29.00
2023-05-21T10:02:57.469Z,29.29
2023-05-21T10:05:28.396Z,29.63
2023-05-21T10:08:04.470Z,29.89
2023-05-21T10:10:33.070Z,30.20
2023-05-21T10:13:07.154Z,30.33
2023-05-21T10:15:39.447Z,30.42
2023-05-21T10:18:10.232Z,30.07
2023-05-21T10:20:39.169Z,30.23
2023-05-21T10:23:08.377Z,30.36
2023-05-21T10:25:37.122Z,30.78
2023-05-21T10:28:07.319Z,31.57
2023-05-21T10:30:37.420Z,31.75
2023-05-21T10:33:06.391Z,31.77
2023-05-21T10:35:36.069Z,31.08
2023-05-21T10:38:05.398Z,31.07
2023-05-21T10:40:36.469Z,30.81
2023-05-21T10:43:14.112Z,30.61
2023-05-21T10:46:19.776Z,30.89
2023-05-21T10:49:17.120Z,30.94
2023-05-21T10:52:09.986Z,30.60
2023-05-21T10:54:54.638Z,30.55
2023-05-21T10:57:45.333Z,30.50
2023-05-21T11:00:16.938Z,30.18
2023-05-21T11:02:46.223Z,29.86
2023-05-21T11:05:14.566Z,29.70
2023-05-21T11:07:57.845Z,29.36
2023-05-21T11:10:40.850Z,28.84
2023-05-21T11:13:16.877Z,28.39
2023-05-21T11:16:01.746Z,28.38
2023-05-21T11:18:36.062Z,28.86
2023-05-21T11:21:28.510Z,28.76
2023-05-21T11:24:08.551Z,28.63
2023-05-21T11:27:04.967Z,28.93
2023-05-21T11:29:44.741Z,28.83
2023-05-21T11:32:15.777Z,28.18
2023-05-21T11:34:48.701Z,28.56
2023-05-21T11:37:32.196Z,29.03
2023-05-21T11:40:19.208Z,29.26
2023-05-21T11:42:51.391Z,29.34
2023-05-21T11:45:21.590Z,29.31
2023-05-21T11:47:51.621Z,29.33
2023-05-21T11:50:20.848Z,29.22
2023-05-21T11:52:50.556Z,29.14
2023-05-21T11:55:26.231Z,28.95
2023-05-21T11:57:55.653Z,28.95
2023-05-21T12:00:24.683Z,28.87
2023-05-21T12:02:54.052Z,28.45
2023-05-21T12:05:23.069Z,28.47
2023-05-21T12:07:51.757Z,28.34
2023-05-21T12:10:24.424Z,28.57
2023-05-21T12:12:56.472Z,29.01
2023-05-21T12:15:26.904Z,29.59
2023-05-21T12:17:56.346Z,29.99
2023-05-21T12:20:27.151Z,30.12
2023-05-21T12:22:56.804Z,30.27
2023-05-21T12:25:25.455Z,30.47
2023-05-21T12:27:58.232Z,30.26
2023-05-21T12:30:27.333Z,30.25
2023-05-21T12:32:58.677Z,30.23
2023-05-21T12:35:27.218Z,29.77
2023-05-21T12:37:56.751Z,29.89
2023-05-21T12:40:37.513Z,29.77
2023-05-21T12:43:06.324Z,29.57
2023-05-21T12:45:35.118Z,29.53
2023-05-21T12:48:03.888Z,29.37
2023-05-21T12:50:34.236Z,29.33
2023-05-21T12:53:02.724Z,29.32
2023-05-21T12:55:31.729Z,29.46
2023-05-21T12:58:09.096Z,29.38
2023-05-21T13:00:43.067Z,29.19
2023-05-21T13:03:11.600Z,29.45
2023-05-21T13:05:42.735Z,29.59
2023-05-21T13:08:11.470Z,29.28
2023-05-21T13:10:40.084Z,29.24
2023-05-21T13:13:08.385Z,28.91
2023-05-21T13:15:36.697Z,28.29
2023-05-21T13:18:05.149Z,28.10
2023-05-21T13:20:33.515Z,27.93
2023-05-21T13:23:03.505Z,28.06
2023-05-21T13:25:33.877Z,27.96
2023-05-21T13:28:05.285Z,27.65
2023-05-21T13:30:33.996Z,27.72
2023-05-21T13:33:03.091Z,27.93
2023-05-21T13:35:32.512Z,27.92
2023-05-21T13:38:00.833Z,27.66
2023-05-21T13:40:29.358Z,27.58
2023-05-21T13:42:57.836Z,27.61
2023-05-21T13:45:29.469Z,27.40
2023-05-21T13:47:58.525Z,27.50
2023-05-21T13:50:27.570Z,27.55
2023-05-21T13:52:55.959Z,27.34
2023-05-21T13:55:24.126Z,27.14
2023-05-21T13:57:52.403Z,26.91
2023-05-21T14:00:20.710Z,26.77
2023-05-21T14:02:50.547Z,26.59
2023-05-21T14:05:19.172Z,26.45
2023-05-21T14:07:48.592Z,26.44
2023-05-21T14:10:17.268Z,26.50
2023-05-21T14:12:46.371Z,26.33
2023-05-21T14:15:16.300Z,26.21
2023-05-21T14:17:44.620Z,26.15
2023-05-21T14:20:13.242Z,25.98
2023-05-21T14:22:41.527Z,26.01
2023-05-21T14:25:09.937Z,26.01
2023-05-21T14:27:38.572Z,25.91
2023-05-21T14:30:07.803Z,25.96
2023-05-21T14:32:36.012Z,25.86
2023-05-21T14:35:05.083Z,25.89
2023-05-21T14:37:33.541Z,25.78
2023-05-21T14:40:02.225Z,25.67
2023-05-21T14:42:30.824Z,25.55
2023-05-21T14:44:59.281Z,25.55
2023-05-21T14:47:27.363Z,25.44
2023-05-21T14:49:56.134Z,25.50
2023-05-21T14:52:24.304Z,25.53
2023-05-21T14:54:52.493Z,25.33
2023-05-21T14:57:21.319Z,25.22
2023-05-21T14:59:49.643Z,25.20
2023-05-21T15:02:17.843Z,25.00
2023-05-21T15:04:46.191Z,24.93
2023-05-21T15:07:14.681Z,24.81
2023-05-21T15:09:42.956Z,24.85
2023-05-21T15:12:11.340Z,24.81
2023-05-21T15:14:41.152Z,24.77
2023-05-21T15:17:09.424Z,24.61
2023-05-21T15:19:37.893Z,24.56
2023-05-21T15:22:06.202Z,24.49
2023-05-21T15:24:34.463Z,24.44
2023-05-21T15:27:02.842Z,24.45
2023-05-21T15:29:31.460Z,24.33
2023-05-21T15:32:01.376Z,24.16
2023-05-21T15:34:29.735Z,24.07
2023-05-21T15:36:58.507Z,24.05
2023-05-21T15:39:27.595Z,23.93
2023-05-21T15:41:55.976Z,23.84
2023-05-21T15:44:26.156Z,23.82
2023-05-21T15:46:55.052Z,23.74
2023-05-21T15:49:23.338Z,23.62
2023-05-21T15:51:51.852Z,23.57
2023-05-21T15:54:20.132Z,23.48
2023-05-21T15:56:48.507Z,23.40
2023-05-21T15:59:16.893Z,23.31
2023-05-21T16:01:45.371Z,23.19
2023-05-21T16:04:14.186Z,23.09
2023-05-21T16:06:42.741Z,22.98
2023-05-21T16:09:11.129Z,22.89
2023-05-21T16:11:39.697Z,22.80
2023-05-21T16:14:07.872Z,22.72
2023-05-21T16:16:36.181Z,22.60
2023-05-21T16:19:04.556Z,22.51
2023-05-21T16:21:33.250Z,22.40
2023-05-21T16:24:01.801Z,22.30
2023-05-21T16:26:30.388Z,22.24
2023-05-21T16:28:58.939Z,22.13
2023-05-21T16:31:27.585Z,22.05
2023-05-21T16:33:56.138Z,22.02
2023-05-21T16:36:24.307Z,21.92
2023-05-21T16:38:52.483Z,21.80
2023-05-21T16:41:22.001Z,21.76
2023-05-21T16:43:52.726Z,21.67
2023-05-21T16:46:21.879Z,21.57
2023-05-21T16:48:50.296Z,21.49
2023-05-21T16:51:18.576Z,21.47
2023-05-21T16:53:46.821Z,21.41
2023-05-21T16:56:15.045Z,21.30
2023-05-21T16:58:43.298Z,21.19
2023-05-21T17:01:11.659Z,21.06
2023-05-21T17:03:43.103Z,20.98
2023-05-21T17:06:11.830Z,20.89
2023-05-21T17:08:40.099Z,20.79
2023-05-21T17:11:08.916Z,20.67
2023-05-21T17:13:37.062Z,20.56
2023-05-21T17:16:05.363Z,20.48
2023-05-21T17:18:33.616Z,20.37
2023-05-21T17:21:02.002Z,20.23
2023-05-21T17:23:30.266Z,20.12
2023-05-21T17:25:58.548Z,19.96
2023-05-21T17:28:26.685Z,19.83
2023-05-21T17:30:55.008Z,19.69
2023-05-21T17:33:24.011Z,19.59
2023-05-21T17:35:52.275Z,19.45
2023-05-21T17:38:20.549Z,19.35
2023-05-21T17:40:51.685Z,19.24
2023-05-21T17:43:19.862Z,19.14
2023-05-21T17:45:48.138Z,19.03
2023-05-21T17:48:16.621Z,18.95
2023-05-21T17:50:47.151Z,18.85
2023-05-21T17:53:16.616Z,18.75
2023-05-21T17:55:44.825Z,18.66
2023-05-21T17:58:13.409Z,18.57
2023-05-21T18:00:41.750Z,18.44
2023-05-21T18:03:10.096Z,18.30
2023-05-21T18:05:38.611Z,18.13
2023-05-21T18:08:10.177Z,17.99
2023-05-21T18:10:38.579Z,17.87
2023-05-21T18:13:06.957Z,17.74
2023-05-21T18:15:35.953Z,17.64
2023-05-21T18:18:04.705Z,17.53
2023-05-21T18:20:34.277Z,17.43
2023-05-21T18:23:03.032Z,17.33
2023-05-21T18:25:31.727Z,17.22
2023-05-21T18:28:00.604Z,17.12
2023-05-21T18:30:28.886Z,17.01
2023-05-21T18:32:57.197Z,16.88
2023-05-21T18:35:27.481Z,16.76
2023-05-21T18:37:55.760Z,16.64
2023-05-21T18:40:26.098Z,16.54
2023-05-21T18:42:55.288Z,16.48
2023-05-21T18:45:23.664Z,16.42
2023-05-21T18:47:51.855Z,16.33
2023-05-21T18:50:20.732Z,16.27
2023-05-21T18:52:51.644Z,16.22
2023-05-21T18:55:20.664Z,16.19
2023-05-21T18:57:48.948Z,16.18
2023-05-21T19:00:17.730Z,16.18
2023-05-21T19:02:46.984Z,16.19
2023-05-21T19:05:15.213Z,16.19
2023-05-21T19:07:43.898Z,16.17
2023-05-21T19:10:13.004Z,16.14
2023-05-21T19:12:42.551Z,16.10
2023-05-21T19:15:11.483Z,16.03
2023-05-21T19:17:40.213Z,15.96
2023-05-21T19:20:09.605Z,15.90
2023-05-21T19:22:38.096Z,15.84
2023-05-21T19:25:07.156Z,15.79
2023-05-21T19:27:35.627Z,15.73
2023-05-21T19:30:04.420Z,15.67
2023-05-21T19:32:32.899Z,15.62
2023-05-21T19:35:01.179Z,15.56
2023-05-21T19:37:29.455Z,15.50
2023-05-21T19:39:57.624Z,15.46
2023-05-21T19:42:25.801Z,15.42
2023-05-21T19:44:54.177Z,15.39
2023-05-21T19:47:22.895Z,15.36
2023-05-21T19:49:51.147Z,15.35
2023-05-21T19:52:19.421Z,15.33
2023-05-21T19:54:47.600Z,15.32
2023-05-21T19:57:16.280Z,15.30
2023-05-21T19:59:44.464Z,15.28
2023-05-21T20:02:15.279Z,15.27
2023-05-21T20:04:43.466Z,15.28
2023-05-21T20:07:11.651Z,15.34
2023-05-21T20:09:40.248Z,15.40
2023-05-21T20:12:09.631Z,15.46
2023-05-21T20:14:37.709Z,15.54
2023-05-21T20:17:06.466Z,15.61
2023-05-21T20:19:36.179Z,15.66
2023-05-21T20:22:05.602Z,15.70
2023-05-21T20:24:34.093Z,15.77
2023-05-21T20:27:02.382Z,15.83
2023-05-21T20:29:30.630Z,15.90
2023-05-21T20:31:59.212Z,16.06
2023-05-21T20:34:30.352Z,16.16
2023-05-21T20:36:58.739Z,16.24
2023-05-21T20:39:28.851Z,16.31
2023-05-21T20:41:58.369Z,16.35
2023-05-21T20:44:27.754Z,16.38
2023-05-21T20:46:56.034Z,16.38
2023-05-21T20:49:25.086Z,16.40
2023-05-21T20:51:54.156Z,16.40
2023-05-21T20:54:25.596Z,16.41
2023-05-21T20:56:55.387Z,16.43
2023-05-21T20:59:23.667Z,16.42
2023-05-21T21:01:52.710Z,16.41
2023-05-21T21:04:21.034Z,16.39
2023-05-21T21:06:50.553Z,16.37
2023-05-21T21:09:19.227Z,16.34
2023-05-21T21:11:47.508Z,16.30
2023-05-21T21:14:15.781Z,16.25
2023-05-21T21:16:44.206Z,16.20
2023-05-21T21:19:12.775Z,16.16
2023-05-21T21:21:41.441Z,16.10
2023-05-21T21:24:09.625Z,16.05
2023-05-21T21:26:37.782Z,15.99
2023-05-21T21:29:06.094Z,15.93
2023-05-21T21:31:34.218Z,15.87
2023-05-21T21:34:02.561Z,15.81
2023-05-21T21:36:31.604Z,15.75
2023-05-21T21:38:59.783Z,15.69
2023-05-21T21:41:29.188Z,15.64
2023-05-21T21:43:57.471Z,15.61
2023-05-21T21:46:26.524Z,15.57
2023-05-21T21:48:54.731Z,15.57
2023-05-21T21:51:23.662Z,15.60
2023-05-21T21:53:52.101Z,15.62
2023-05-21T21:56:20.277Z,15.61
2023-05-21T21:58:48.329Z,15.60
2023-05-21T22:01:16.491Z,15.60
2023-05-21T22:03:45.007Z,15.60
2023-05-21T22:06:13.186Z,15.60
2023-05-21T22:08:41.605Z,15.58
2023-05-21T22:11:09.935Z,15.55
2023-05-21T22:13:38.725Z,15.52
2023-05-21T22:16:07.926Z,15.47
2023-05-21T22:18:40.441Z,15.43
2023-05-21T22:21:14.514Z,15.38
2023-05-21T22:23:42.792Z,15.38
2023-05-21T22:26:11.067Z,15.41
2023-05-21T22:28:39.653Z,15.41
2023-05-21T22:31:08.143Z,15.41
2023-05-21T22:33:36.935Z,15.40
2023-05-21T22:36:05.973Z,15.39
2023-05-21T22:38:34.298Z,15.39
2023-05-21T22:41:03.772Z,15.38
2023-05-21T22:43:34.376Z,15.37
2023-05-21T22:46:03.185Z,15.35
2023-05-21T22:48:31.501Z,15.33
2023-05-21T22:51:02.029Z,15.32
2023-05-21T22:53:32.395Z,15.36
2023-05-21T22:56:01.478Z,15.38
2023-05-21T22:58:29.929Z,15.37
2023-05-21T23:00:58.309Z,15.37
2023-05-21T23:03:27.022Z,15.37
2023-05-21T23:05:55.372Z,15.37
2023-05-21T23:08:23.750Z,15.35
2023-05-21T23:10:51.923Z,15.34
2023-05-21T23:13:20.195Z,15.32
2023-05-21T23:15:48.678Z,15.29
2023-05-21T23:18:17.572Z,15.27
2023-05-21T23:20:45.978Z,15.28
2023-05-21T23:23:14.224Z,15.28
2023-05-21T23:25:42.406Z,15.27
2023-05-21T23:28:10.986Z,15.24
2023-05-21T23:30:39.566Z,15.22
2023-05-21T23:33:08.361Z,15.21
2023-05-21T23:35:36.838Z,15.19
2023-05-21T23:38:05.122Z,15.16
2023-05-21T23:40:33.388Z,15.13
2023-05-21T23:43:01.785Z,15.12
2023-05-21T23:45:29.893Z,15.15
2023-05-21T23:47:58.282Z,15.15
2023-05-21T23:50:26.374Z,15.13
2023-05-21T23:52:54.783Z,15.10
2023-05-21T23:55:23.079Z,15.07
2023-05-21T23:57:51.575Z,15.04
